createdAt,value
2023-12-28T00:02:11.857Z,60.89
2023-12-28T00:07:14.850Z,61.08
2023-12-28T00:12:17.223Z,60.98
2023-12-28T00:17:19.705Z,61.05
2023-12-28T00:22:21.954Z,60.92
2023-12-28T00:27:24.307Z,60.88
2023-12-28T00:32:26.798Z,61.09
2023-12-28T00:37:29.160Z,61.36
2023-12-28T00:42:31.654Z,60.52
2023-12-28T00:47:34.117Z,60.61
2023-12-28T00:52:36.522Z,60.95
2023-12-28T00:57:38.860Z,60.97
2023-12-28T01:02:41.151Z,60.57
2023-12-28T01:07:43.466Z,60.88
2023-12-28T01:12:46.384Z,60.95
2023-12-28T01:17:48.946Z,61.18
2023-12-28T01:22:51.737Z,60.68
2023-12-28T01:27:54.133Z,60.89
2023-12-28T01:32:56.765Z,60.93
2023-12-28T01:38:01.766Z,60.90
2023-12-28T01:43:04.405Z,61.28
2023-12-28T01:48:07.123Z,61.47
2023-12-28T01:53:11.809Z,61.69
2023-12-28T01:58:14.236Z,61.59
2023-12-28T02:03:16.701Z,61.88
2023-12-28T02:08:18.951Z,62.08
2023-12-28T02:13:21.342Z,61.69
2023-12-28T02:18:30.850Z,61.75
2023-12-28T02:23:34.953Z,62.07
2023-12-28T02:28:37.350Z,61.94
2023-12-28T02:33:52.377Z,61.95
2023-12-28T02:38:59.707Z,62.55
2023-12-28T02:44:02.120Z,62.85
2023-12-28T02:49:04.522Z,62.88
2023-12-28T02:54:09.505Z,62.93
2023-12-28T02:59:12.120Z,62.51
2023-12-28T03:04:14.580Z,63.06
2023-12-28T03:09:16.998Z,62.33
2023-12-28T03:14:19.556Z,62.54
2023-12-28T03:19:22.207Z,62.17
2023-12-28T03:24:24.688Z,62.10
2023-12-28T03:29:29.248Z,62.02
2023-12-28T03:34:32.056Z,61.69
2023-12-28T03:39:35.493Z,61.63
2023-12-28T03:44:37.994Z,61.68
2023-12-28T03:49:40.939Z,61.57
2023-12-28T03:54:43.354Z,61.35
2023-12-28T03:59:45.664Z,61.53
2023-12-28T04:04:48.032Z,61.34
2023-12-28T04:09:50.627Z,61.44
2023-12-28T04:14:53.084Z,61.38
2023-12-28T04:19:55.513Z,61.48
2023-12-28T04:24:58.026Z,61.30
2023-12-28T04:30:00.373Z,61.35
2023-12-28T04:35:04.836Z,61.29
2023-12-28T04:40:08.011Z,61.33
2023-12-28T04:45:11.574Z,61.38
2023-12-28T04:50:14.040Z,61.22
2023-12-28T04:55:16.501Z,61.67
2023-12-28T05:00:20.478Z,61.27
2023-12-28T05:05:24.648Z,61.66
2023-12-28T05:10:27.396Z,61.38
2023-12-28T05:15:30.657Z,61.34
2023-12-28T05:20:33.321Z,61.62
2023-12-28T05:25:35.820Z,61.75
2023-12-28T05:30:39.029Z,61.50
2023-12-28T05:35:41.497Z,61.67
2023-12-28T05:40:45.826Z,61.20
2023-12-28T05:45:48.215Z,61.18
2023-12-28T05:50:51.004Z,61.15
2023-12-28T05:55:53.349Z,61.16
2023-12-28T06:00:56.088Z,60.84
2023-12-28T06:05:58.786Z,60.76
2023-12-28T06:11:01.123Z,61.11
2023-12-28T06:16:03.958Z,60.68
2023-12-28T06:21:07.532Z,61.03
2023-12-28T06:26:09.837Z,60.95
2023-12-28T06:31:12.406Z,60.68
2023-12-28T06:36:14.929Z,60.85
2023-12-28T06:41:17.346Z,60.53
2023-12-28T06:46:20.250Z,60.09
2023-12-28T06:51:23.800Z,60.25
2023-12-28T06:56:26.857Z,60.25
2023-12-28T07:01:29.452Z,60.07
2023-12-28T07:06:31.893Z,59.70
2023-12-28T07:11:34.459Z,59.79
2023-12-28T07:16:36.870Z,59.94
2023-12-28T07:21:39.165Z,60.21
2023-12-28T07:26:41.658Z,60.12
2023-12-28T07:31:44.048Z,60.31
2023-12-28T07:36:46.400Z,60.44
2023-12-28T07:41:51.005Z,59.70
2023-12-28T07:46:53.273Z,59.36
2023-12-28T07:51:55.730Z,58.86
2023-12-28T07:56:58.092Z,58.68
2023-12-28T08:02:00.466Z,58.38
2023-12-28T08:07:03.068Z,57.93
2023-12-28T08:12:06.049Z,57.72
2023-12-28T08:17:08.404Z,57.11
2023-12-28T08:22:10.848Z,56.84
2023-12-28T08:27:13.340Z,56.89
2023-12-28T08:32:16.035Z,56.37
2023-12-28T08:37:18.355Z,56.50
2023-12-28T08:42:21.120Z,57.18
2023-12-28T08:47:23.740Z,57.54
2023-12-28T08:52:26.111Z,57.80
2023-12-28T08:57:39.433Z,58.26
2023-12-28T09:02:44.765Z,58.18
2023-12-28T09:07:48.464Z,58.92
2023-12-28T09:12:50.856Z,58.97
2023-12-28T09:17:53.396Z,58.90
2023-12-28T09:22:57.754Z,59.15
2023-12-28T09:28:00.459Z,59.42
2023-12-28T09:33:03.205Z,59.91
2023-12-28T09:38:05.746Z,60.56
2023-12-28T09:43:20.443Z,60.15
2023-12-28T09:48:24.157Z,58.40
2023-12-28T09:53:27.399Z,57.03
2023-12-28T09:58:32.237Z,55.25
2023-12-28T10:03:34.608Z,55.45
2023-12-28T10:08:37.308Z,54.28
2023-12-28T10:13:39.663Z,52.72
2023-12-28T10:18:45.920Z,51.54
2023-12-28T10:23:48.395Z,52.11
2023-12-28T10:28:50.786Z,52.66
2023-12-28T10:33:53.840Z,53.43
2023-12-28T10:39:02.030Z,54.58
2023-12-28T10:44:09.554Z,54.75
2023-12-28T10:49:17.700Z,54.77
2023-12-28T10:54:29.313Z,54.95
2023-12-28T10:59:34.502Z,55.32
2023-12-28T11:04:47.782Z,55.06
2023-12-28T11:09:50.988Z,54.50
2023-12-28T11:14:54.513Z,53.92
2023-12-28T11:19:58.053Z,53.46
2023-12-28T11:25:00.557Z,53.99
2023-12-28T11:30:04.950Z,54.09
2023-12-28T11:35:11.437Z,53.80
2023-12-28T11:40:18.034Z,53.87
2023-12-28T11:45:22.945Z,53.73
2023-12-28T11:50:25.298Z,53.20
2023-12-28T11:55:27.773Z,52.73
2023-12-28T12:00:30.147Z,53.05
2023-12-28T12:05:32.774Z,52.72
2023-12-28T12:10:35.369Z,52.31
2023-12-28T12:15:38.230Z,52.34
2023-12-28T12:20:41.252Z,51.93
2023-12-28T12:25:46.744Z,52.18
2023-12-28T12:30:59.335Z,51.81
2023-12-28T12:36:02.412Z,51.56
2023-12-28T12:41:04.917Z,51.08
2023-12-28T12:46:07.460Z,51.82
2023-12-28T12:51:10.053Z,51.85
2023-12-28T12:56:12.614Z,52.72
2023-12-28T13:01:15.225Z,52.89
2023-12-28T13:06:17.816Z,52.72
2023-12-28T13:11:24.829Z,52.74
2023-12-28T13:16:27.384Z,52.42
2023-12-28T13:21:30.057Z,51.89
2023-12-28T13:26:32.362Z,51.38
2023-12-28T13:31:36.064Z,51.80
2023-12-28T13:36:38.429Z,51.43
2023-12-28T13:41:41.596Z,52.02
2023-12-28T13:46:44.638Z,51.90
2023-12-28T13:51:47.612Z,51.60
2023-12-28T13:56:50.030Z,51.95
2023-12-28T14:01:52.801Z,51.81
2023-12-28T14:06:55.426Z,52.10
2023-12-28T14:11:57.863Z,51.78
2023-12-28T14:17:00.073Z,51.74
2023-12-28T14:22:02.832Z,52.06
2023-12-28T14:27:05.640Z,52.10
2023-12-28T14:32:08.690Z,51.34
2023-12-28T14:37:10.996Z,50.80
2023-12-28T14:42:15.048Z,51.06
2023-12-28T14:47:17.357Z,51.29
2023-12-28T14:52:19.640Z,51.36
2023-12-28T14:57:23.770Z,51.40
2023-12-28T15:02:26.093Z,51.29
2023-12-28T15:07:28.374Z,51.88
2023-12-28T15:12:30.986Z,51.49
2023-12-28T15:17:33.790Z,51.76
2023-12-28T15:22:37.279Z,51.79
2023-12-28T15:27:39.906Z,51.68
2023-12-28T15:32:42.886Z,51.26
2023-12-28T15:37:45.324Z,51.64
2023-12-28T15:42:49.574Z,51.26
2023-12-28T15:47:52.291Z,51.26
2023-12-28T15:52:54.520Z,51.11
2023-12-28T15:57:57.030Z,51.85
2023-12-28T16:02:59.358Z,51.62
2023-12-28T16:08:02.071Z,52.20
2023-12-28T16:13:05.237Z,52.51
2023-12-28T16:18:08.128Z,52.55
2023-12-28T16:23:10.564Z,53.35
2023-12-28T16:28:13.205Z,53.59
2023-12-28T16:33:15.593Z,52.99
2023-12-28T16:38:18.733Z,53.18
2023-12-28T16:43:21.054Z,53.22
2023-12-28T16:48:24.205Z,53.48
2023-12-28T16:53:26.650Z,53.64
2023-12-28T16:58:29.011Z,53.69
2023-12-28T17:03:35.086Z,54.91
2023-12-28T17:08:37.822Z,54.58
2023-12-28T17:13:40.432Z,54.93
2023-12-28T17:18:43.071Z,54.55
2023-12-28T17:23:53.501Z,54.33
2023-12-28T17:29:08.940Z,54.79
2023-12-28T17:34:11.905Z,54.52
2023-12-28T17:39:14.465Z,54.28
2023-12-28T17:44:25.870Z,54.58
2023-12-28T17:49:30.783Z,54.55
2023-12-28T17:54:33.356Z,54.68
2023-12-28T17:59:35.723Z,54.37
2023-12-28T18:04:38.323Z,55.11
2023-12-28T18:09:44.283Z,55.02
2023-12-28T18:14:46.553Z,55.08
2023-12-28T18:19:48.987Z,55.16
2023-12-28T18:24:51.501Z,55.41
2023-12-28T18:29:54.619Z,55.25
2023-12-28T18:34:57.181Z,55.08
2023-12-28T18:39:59.386Z,55.10
2023-12-28T18:45:02.060Z,55.38
2023-12-28T18:50:08.084Z,54.39
2023-12-28T18:55:10.467Z,54.78
2023-12-28T19:00:13.378Z,55.14
2023-12-28T19:05:17.257Z,55.08
2023-12-28T19:10:19.803Z,55.58
2023-12-28T19:15:22.182Z,55.28
2023-12-28T19:20:24.676Z,55.36
2023-12-28T19:25:26.976Z,55.13
2023-12-28T19:30:29.373Z,54.95
2023-12-28T19:35:31.798Z,55.04
2023-12-28T19:40:34.108Z,55.07
2023-12-28T19:45:36.426Z,54.82
2023-12-28T19:50:41.042Z,55.40
2023-12-28T19:55:44.426Z,55.26
2023-12-28T20:00:46.845Z,55.40
2023-12-28T20:05:49.199Z,55.51
2023-12-28T20:10:51.500Z,55.58
2023-12-28T20:15:53.934Z,55.35
2023-12-28T20:20:56.734Z,55.61
2023-12-28T20:25:59.094Z,55.46
2023-12-28T20:31:01.932Z,55.45
2023-12-28T20:36:04.610Z,55.66
2023-12-28T20:41:07.664Z,55.78
2023-12-28T20:46:09.966Z,56.30
2023-12-28T20:51:13.192Z,55.51
2023-12-28T20:56:15.830Z,56.02
2023-12-28T21:01:18.309Z,56.25
2023-12-28T21:06:20.763Z,55.75
2023-12-28T21:11:23.085Z,55.91
2023-12-28T21:16:26.593Z,55.84
2023-12-28T21:21:28.893Z,55.83
2023-12-28T21:26:31.257Z,55.91
2023-12-28T21:31:35.241Z,56.44
2023-12-28T21:36:37.672Z,56.38
2023-12-28T21:41:40.033Z,56.05
2023-12-28T21:46:42.866Z,56.16
2023-12-28T21:51:45.444Z,56.94
2023-12-28T21:56:47.769Z,56.83
2023-12-28T22:01:50.157Z,56.99
2023-12-28T22:06:52.613Z,56.37
2023-12-28T22:11:54.914Z,56.99
2023-12-28T22:16:57.353Z,56.55
2023-12-28T22:21:59.593Z,57.01
2023-12-28T22:27:02.676Z,57.17
2023-12-28T22:32:05.179Z,57.06
2023-12-28T22:37:07.758Z,57.02
2023-12-28T22:42:12.390Z,57.05
2023-12-28T22:47:14.591Z,56.95
2023-12-28T22:52:17.381Z,57.19
2023-12-28T22:57:19.899Z,57.47
2023-12-28T23:02:22.140Z,57.65
2023-12-28T23:07:25.649Z,57.73
2023-12-28T23:12:28.310Z,57.42
2023-12-28T23:17:30.704Z,57.50
2023-12-28T23:22:33.909Z,57.92
2023-12-28T23:27:36.202Z,58.14
2023-12-28T23:32:38.706Z,57.75
2023-12-28T23:37:41.189Z,58.10
2023-12-28T23:42:43.466Z,57.67
2023-12-28T23:47:45.773Z,57.64
2023-12-28T23:52:48.046Z,58.04
2023-12-28T23:57:50.449Z,58.21
